sensor_id;sensor_type;location;lat;lon;timestamp;pressure;altitude;pressure_sealevel;temperature;humidity
20003;BME280;10162;41.600;23.806;2022-09-09T00:02:27;95515.75;;;15.83;100.00
20003;BME280;10162;41.600;23.806;2022-09-09T00:11:51;95517.84;;;15.25;100.00
20003;BME280;10162;41.600;23.806;2022-09-09T00:21:04;95510.94;;;14.93;100.00
20003;BME280;10162;41.600;23.806;2022-09-09T00:23:38;95508.75;;;14.89;100.00
20003;BME280;10162;41.600;23.806;2022-09-09T00:28:45;95519.13;;;15.09;100.00
20003;BME280;10162;41.600;23.806;2022-09-09T00:31:18;95505.44;;;15.01;100.00
20003;BME280;10162;41.600;23.806;2022-09-09T00:37:33;95516.34;;;15.04;100.00
20003;BME280;10162;41.600;23.806;2022-09-09T00:40:04;95515.31;;;15.05;100.00
20003;BME280;10162;41.600;23.806;2022-09-09T00:42:42;95515.09;;;15.13;100.00
20003;BME280;10162;41.600;23.806;2022-09-09T00:55:26;95504.38;;;15.08;100.00
20003;BME280;10162;41.600;23.806;2022-09-09T00:57:54;95521.16;;;15.39;100.00
20003;BME280;10162;41.600;23.806;2022-09-09T01:12:26;95531.25;;;15.48;100.00
20003;BME280;10162;41.600;23.806;2022-09-09T01:27:01;95520.78;;;15.04;100.00
20003;BME280;10162;41.600;23.806;2022-09-09T01:29:28;95527.09;;;14.65;100.00
20003;BME280;10162;41.600;23.806;2022-09-09T01:32:00;95522.44;;;14.67;100.00
20003;BME280;10162;41.600;23.806;2022-09-09T01:34:42;95512.28;;;14.70;100.00
20003;BME280;10162;41.600;23.806;2022-09-09T01:37:12;95511.56;;;14.57;100.00
20003;BME280;10162;41.600;23.806;2022-09-09T01:39:42;95496.66;;;14.37;100.00
20003;BME280;10162;41.600;23.806;2022-09-09T01:42:13;95518.69;;;14.81;100.00
20003;BME280;10162;41.600;23.806;2022-09-09T01:48:28;95498.53;;;14.17;100.00
20003;BME280;10162;41.600;23.806;2022-09-09T01:51:08;95522.56;;;14.27;100.00
20003;BME280;10162;41.600;23.806;2022-09-09T01:53:37;95514.91;;;14.19;100.00
20003;BME280;10162;41.600;23.806;2022-09-09T02:08:03;95505.09;;;14.53;100.00
20003;BME280;10162;41.600;23.806;2022-09-09T02:10:55;95511.63;;;14.43;100.00
20003;BME280;10162;41.600;23.806;2022-09-09T02:17:34;95509.31;;;14.60;100.00
20003;BME280;10162;41.600;23.806;2022-09-09T02:20:12;95505.78;;;14.28;100.00
20003;BME280;10162;41.600;23.806;2022-09-09T02:23:00;95504.16;;;14.27;100.00
20003;BME280;10162;41.600;23.806;2022-09-09T02:28:54;95517.53;;;14.19;100.00
20003;BME280;10162;41.600;23.806;2022-09-09T02:31:22;95495.66;;;14.25;100.00
20003;BME280;10162;41.600;23.806;2022-09-09T02:34:12;95501.44;;;14.54;100.00
20003;BME280;10162;41.600;23.806;2022-09-09T02:36:40;95510.25;;;14.21;100.00
20003;BME280;10162;41.600;23.806;2022-09-09T02:39:08;95495.13;;;14.03;100.00
20003;BME280;10162;41.600;23.806;2022-09-09T02:41:38;95503.84;;;13.97;100.00
20003;BME280;10162;41.600;23.806;2022-09-09T02:47:10;95511.59;;;14.50;100.00
20003;BME280;10162;41.600;23.806;2022-09-09T02:50:05;95518.19;;;14.01;100.00
20003;BME280;10162;41.600;23.806;2022-09-09T02:52:38;95516.25;;;14.41;100.00
20003;BME280;10162;41.600;23.806;2022-09-09T02:55:24;95517.66;;;14.51;100.00
20003;BME280;10162;41.600;23.806;2022-09-09T02:57:57;95496.97;;;14.03;100.00
20003;BME280;10162;41.600;23.806;2022-09-09T03:00:27;95504.25;;;14.01;100.00
20003;BME280;10162;41.600;23.806;2022-09-09T03:02:57;95501.66;;;13.88;100.00
20003;BME280;10162;41.600;23.806;2022-09-09T03:05:35;95509.31;;;13.96;100.00
20003;BME280;10162;41.600;23.806;2022-09-09T03:08:03;95513.78;;;13.89;100.00
20003;BME280;10162;41.600;23.806;2022-09-09T03:10:29;95509.06;;;14.17;100.00
20003;BME280;10162;41.600;23.806;2022-09-09T03:12:55;95524.72;;;14.57;100.00
20003;BME280;10162;41.600;23.806;2022-09-09T03:15:22;95502.66;;;13.87;100.00
20003;BME280;10162;41.600;23.806;2022-09-09T03:17:48;95505.09;;;13.95;100.00
20003;BME280;10162;41.600;23.806;2022-09-09T03:20:14;95478.91;;;14.13;100.00
20003;BME280;10162;41.600;23.806;2022-09-09T03:22:41;95488.53;;;13.81;100.00
20003;BME280;10162;41.600;23.806;2022-09-09T03:28:04;95494.22;;;14.42;100.00
20003;BME280;10162;41.600;23.806;2022-09-09T03:30:30;95499.03;;;14.52;100.00
20003;BME280;10162;41.600;23.806;2022-09-09T03:32:57;95503.50;;;13.74;100.00
20003;BME280;10162;41.600;23.806;2022-09-09T03:39:14;95487.47;;;13.95;100.00
20003;BME280;10162;41.600;23.806;2022-09-09T03:41:41;95492.50;;;14.03;100.00
20003;BME280;10162;41.600;23.806;2022-09-09T03:47:21;95491.16;;;13.75;100.00
20003;BME280;10162;41.600;23.806;2022-09-09T03:49:48;95506.28;;;13.99;100.00
20003;BME280;10162;41.600;23.806;2022-09-09T03:52:15;95494.78;;;13.74;100.00
20003;BME280;10162;41.600;23.806;2022-09-09T03:58:41;95509.75;;;13.86;100.00
20003;BME280;10162;41.600;23.806;2022-09-09T04:01:11;95495.03;;;13.72;100.00
20003;BME280;10162;41.600;23.806;2022-09-09T04:04:13;95518.44;;;13.80;100.00
20003;BME280;10162;41.600;23.806;2022-09-09T04:06:39;95519.47;;;13.66;100.00
20003;BME280;10162;41.600;23.806;2022-09-09T04:09:06;95506.13;;;13.68;100.00
20003;BME280;10162;41.600;23.806;2022-09-09T04:11:32;95513.63;;;13.71;100.00
20003;BME280;10162;41.600;23.806;2022-09-09T04:16:54;95501.91;;;13.67;100.00
20003;BME280;10162;41.600;23.806;2022-09-09T04:19:21;95508.72;;;13.94;100.00
20003;BME280;10162;41.600;23.806;2022-09-09T04:21:47;95510.38;;;13.69;100.00
20003;BME280;10162;41.600;23.806;2022-09-09T04:27:08;95532.59;;;13.73;100.00
20003;BME280;10162;41.600;23.806;2022-09-09T04:29:35;95509.53;;;14.01;100.00
20003;BME280;10162;41.600;23.806;2022-09-09T04:32:01;95512.16;;;13.88;100.00
20003;BME280;10162;41.600;23.806;2022-09-09T04:34:40;95507.31;;;13.85;100.00
20003;BME280;10162;41.600;23.806;2022-09-09T04:37:08;95509.63;;;14.26;100.00
20003;BME280;10162;41.600;23.806;2022-09-09T04:39:34;95506.31;;;14.50;100.00
20003;BME280;10162;41.600;23.806;2022-09-09T04:42:00;95516.31;;;14.22;100.00
20003;BME280;10162;41.600;23.806;2022-09-09T04:44:33;95518.31;;;14.39;100.00
20003;BME280;10162;41.600;23.806;2022-09-09T04:46:59;95509.00;;;14.81;100.00
20003;BME280;10162;41.600;23.806;2022-09-09T04:49:25;95511.56;;;14.57;100.00
20003;BME280;10162;41.600;23.806;2022-09-09T04:51:51;95527.06;;;14.71;100.00
20003;BME280;10162;41.600;23.806;2022-09-09T04:54:47;95541.53;;;15.25;100.00
20003;BME280;10162;41.600;23.806;2022-09-09T04:57:13;95529.56;;;15.60;100.00
20003;BME280;10162;41.600;23.806;2022-09-09T04:59:39;95534.47;;;15.75;100.00
20003;BME280;10162;41.600;23.806;2022-09-09T05:02:05;95533.81;;;15.80;100.00
20003;BME280;10162;41.600;23.806;2022-09-09T05:04:59;95544.78;;;16.20;100.00
20003;BME280;10162;41.600;23.806;2022-09-09T05:07:26;95529.53;;;16.03;100.00
20003;BME280;10162;41.600;23.806;2022-09-09T05:09:53;95525.72;;;16.18;100.00
20003;BME280;10162;41.600;23.806;2022-09-09T05:12:19;95514.09;;;16.43;100.00
20003;BME280;10162;41.600;23.806;2022-09-09T05:18:38;95519.06;;;16.70;100.00
20003;BME280;10162;41.600;23.806;2022-09-09T05:21:06;95524.59;;;16.68;100.00
20003;BME280;10162;41.600;23.806;2022-09-09T05:23:49;95533.72;;;16.47;100.00
20003;BME280;10162;41.600;23.806;2022-09-09T05:26:19;95529.84;;;16.50;100.00
20003;BME280;10162;41.600;23.806;2022-09-09T05:28:47;95531.19;;;16.23;100.00
20003;BME280;10162;41.600;23.806;2022-09-09T05:31:15;95514.31;;;16.24;100.00
20003;BME280;10162;41.600;23.806;2022-09-09T05:36:56;95531.16;;;16.77;100.00
20003;BME280;10162;41.600;23.806;2022-09-09T05:39:23;95538.72;;;17.04;100.00
20003;BME280;10162;41.600;23.806;2022-09-09T05:41:50;95532.66;;;17.15;100.00
20003;BME280;10162;41.600;23.806;2022-09-09T05:47:20;95528.25;;;16.97;100.00
20003;BME280;10162;41.600;23.806;2022-09-09T05:49:46;95530.56;;;17.35;100.00
20003;BME280;10162;41.600;23.806;2022-09-09T05:52:12;95530.59;;;17.58;100.00
20003;BME280;10162;41.600;23.806;2022-09-09T05:54:40;95525.50;;;17.45;100.00
20003;BME280;10162;41.600;23.806;2022-09-09T05:57:08;95540.72;;;17.61;100.00
20003;BME280;10162;41.600;23.806;2022-09-09T05:59:33;95538.31;;;17.83;100.00
20003;BME280;10162;41.600;23.806;2022-09-09T06:02:00;95524.53;;;17.69;100.00
20003;BME280;10162;41.600;23.806;2022-09-09T06:04:31;95516.63;;;17.81;100.00
20003;BME280;10162;41.600;23.806;2022-09-09T06:06:58;95521.78;;;18.11;100.00
20003;BME280;10162;41.600;23.806;2022-09-09T06:09:24;95508.00;;;18.49;100.00
20003;BME280;10162;41.600;23.806;2022-09-09T06:11:50;95499.59;;;18.52;100.00
20003;BME280;10162;41.600;23.806;2022-09-09T06:14:18;95497.44;;;18.49;100.00
20003;BME280;10162;41.600;23.806;2022-09-09T06:16:46;95512.03;;;18.63;100.00
20003;BME280;10162;41.600;23.806;2022-09-09T06:19:19;95502.06;;;18.82;100.00
20003;BME280;10162;41.600;23.806;2022-09-09T06:21:46;95507.38;;;19.27;99.08
20003;BME280;10162;41.600;23.806;2022-09-09T06:24:13;95516.69;;;19.13;100.00
20003;BME280;10162;41.600;23.806;2022-09-09T06:26:43;95521.41;;;19.11;100.00
20003;BME280;10162;41.600;23.806;2022-09-09T06:29:12;95507.78;;;19.35;100.00
20003;BME280;10162;41.600;23.806;2022-09-09T06:31:39;95512.78;;;19.49;100.00
20003;BME280;10162;41.600;23.806;2022-09-09T06:34:34;95516.50;;;19.48;100.00
20003;BME280;10162;41.600;23.806;2022-09-09T06:37:02;95524.47;;;19.81;97.07
20003;BME280;10162;41.600;23.806;2022-09-09T06:39:37;95515.72;;;19.47;100.00
20003;BME280;10162;41.600;23.806;2022-09-09T06:42:02;95520.75;;;19.65;98.77
20003;BME280;10162;41.600;23.806;2022-09-09T06:44:54;95522.41;;;20.05;96.84
20003;BME280;10162;41.600;23.806;2022-09-09T06:47:43;95530.13;;;20.06;96.28
20003;BME280;10162;41.600;23.806;2022-09-09T06:50:09;95515.44;;;19.99;98.85
20003;BME280;10162;41.600;23.806;2022-09-09T06:52:37;95528.41;;;19.78;100.00
20003;BME280;10162;41.600;23.806;2022-09-09T06:55:03;95516.75;;;20.35;95.04
20003;BME280;10162;41.600;23.806;2022-09-09T06:57:31;95513.88;;;20.19;96.69
20003;BME280;10162;41.600;23.806;2022-09-09T06:59:57;95513.22;;;20.12;95.18
20003;BME280;10162;41.600;23.806;2022-09-09T07:02:23;95490.81;;;20.03;95.60
20003;BME280;10162;41.600;23.806;2022-09-09T07:04:50;95515.88;;;20.51;95.13
20003;BME280;10162;41.600;23.806;2022-09-09T07:07:17;95498.13;;;20.73;91.58
20003;BME280;10162;41.600;23.806;2022-09-09T07:09:43;95499.69;;;20.74;93.24
20003;BME280;10162;41.600;23.806;2022-09-09T07:12:12;95526.66;;;20.61;93.74
20003;BME280;10162;41.600;23.806;2022-09-09T07:14:43;95503.44;;;21.00;91.47
20003;BME280;10162;41.600;23.806;2022-09-09T07:17:10;95514.69;;;21.07;89.65
20003;BME280;10162;41.600;23.806;2022-09-09T07:19:38;95503.63;;;21.15;89.90
20003;BME280;10162;41.600;23.806;2022-09-09T07:22:05;95510.22;;;21.39;86.71
20003;BME280;10162;41.600;23.806;2022-09-09T07:24:36;95512.53;;;21.31;88.38
20003;BME280;10162;41.600;23.806;2022-09-09T07:27:02;95506.31;;;21.47;86.71
20003;BME280;10162;41.600;23.806;2022-09-09T07:29:29;95516.00;;;21.31;89.50
20003;BME280;10162;41.600;23.806;2022-09-09T07:31:55;95504.03;;;21.61;86.30
20003;BME280;10162;41.600;23.806;2022-09-09T07:34:27;95518.69;;;21.95;84.50
20003;BME280;10162;41.600;23.806;2022-09-09T07:36:53;95506.66;;;21.93;83.03
20003;BME280;10162;41.600;23.806;2022-09-09T07:39:19;95507.81;;;22.02;82.69
20003;BME280;10162;41.600;23.806;2022-09-09T07:41:48;95512.56;;;22.00;85.84
20003;BME280;10162;41.600;23.806;2022-09-09T07:44:43;95522.81;;;22.18;84.17
20003;BME280;10162;41.600;23.806;2022-09-09T07:47:12;95521.38;;;22.42;79.62
20003;BME280;10162;41.600;23.806;2022-09-09T07:49:42;95508.09;;;22.57;78.56
20003;BME280;10162;41.600;23.806;2022-09-09T07:52:08;95513.59;;;22.36;78.77
20003;BME280;10162;41.600;23.806;2022-09-09T07:55:06;95526.13;;;22.97;76.92
20003;BME280;10162;41.600;23.806;2022-09-09T07:57:32;95517.47;;;22.65;77.59
20003;BME280;10162;41.600;23.806;2022-09-09T07:59:58;95511.56;;;22.58;76.97
20003;BME280;10162;41.600;23.806;2022-09-09T08:02:24;95516.66;;;22.59;78.32
20003;BME280;10162;41.600;23.806;2022-09-09T08:05:01;95509.63;;;23.00;75.26
20003;BME280;10162;41.600;23.806;2022-09-09T08:07:27;95503.78;;;23.14;73.22
20003;BME280;10162;41.600;23.806;2022-09-09T08:09:54;95495.19;;;23.01;73.99
20003;BME280;10162;41.600;23.806;2022-09-09T08:12:25;95493.66;;;23.36;71.65
20003;BME280;10162;41.600;23.806;2022-09-09T08:14:53;95464.00;;;22.97;73.15
20003;BME280;10162;41.600;23.806;2022-09-09T08:17:20;95488.63;;;23.39;72.51
20003;BME280;10162;41.600;23.806;2022-09-09T08:19:46;95478.75;;;23.60;71.21
20003;BME280;10162;41.600;23.806;2022-09-09T08:22:17;95496.94;;;23.68;72.69
20003;BME280;10162;41.600;23.806;2022-09-09T08:28:20;95473.16;;;23.77;70.00
20003;BME280;10162;41.600;23.806;2022-09-09T08:30:45;95467.81;;;23.72;71.85
20003;BME280;10162;41.600;23.806;2022-09-09T08:33:13;95483.31;;;23.75;70.68
20003;BME280;10162;41.600;23.806;2022-09-09T08:35:53;95467.53;;;23.58;71.47
20003;BME280;10162;41.600;23.806;2022-09-09T08:38:22;95475.28;;;23.80;70.36
20003;BME280;10162;41.600;23.806;2022-09-09T08:40:48;95471.00;;;23.89;70.58
20003;BME280;10162;41.600;23.806;2022-09-09T08:43:20;95469.38;;;23.98;70.72
20003;BME280;10162;41.600;23.806;2022-09-09T08:52:15;95481.38;;;24.11;69.78
20003;BME280;10162;41.600;23.806;2022-09-09T08:58:51;95467.63;;;24.58;67.58
20003;BME280;10162;41.600;23.806;2022-09-09T09:11:10;95441.66;;;25.57;64.82
20003;BME280;10162;41.600;23.806;2022-09-09T09:18:49;95439.13;;;25.65;62.77
20003;BME280;10162;41.600;23.806;2022-09-09T09:30:24;95446.56;;;26.31;62.21
20003;BME280;10162;41.600;23.806;2022-09-09T09:32:59;95436.56;;;26.37;62.53
20003;BME280;10162;41.600;23.806;2022-09-09T09:39:26;95428.13;;;26.24;60.24
20003;BME280;10162;41.600;23.806;2022-09-09T09:41:56;95442.34;;;27.42;57.99
20003;BME280;10162;41.600;23.806;2022-09-09T09:47:19;95417.41;;;26.86;59.43
20003;BME280;10162;41.600;23.806;2022-09-09T09:50:00;95404.72;;;26.54;58.85
20003;BME280;10162;41.600;23.806;2022-09-09T09:52:33;95396.16;;;26.04;60.17
20003;BME280;10162;41.600;23.806;2022-09-09T09:55:04;95402.78;;;26.12;61.44
20003;BME280;10162;41.600;23.806;2022-09-09T09:57:33;95414.56;;;26.11;61.50
20003;BME280;10162;41.600;23.806;2022-09-09T10:00:18;95405.16;;;26.80;59.49
20003;BME280;10162;41.600;23.806;2022-09-09T10:03:14;95405.56;;;27.75;54.46
20003;BME280;10162;41.600;23.806;2022-09-09T10:06:04;95403.97;;;27.61;56.28
20003;BME280;10162;41.600;23.806;2022-09-09T10:08:34;95400.97;;;27.62;55.50
20003;BME280;10162;41.600;23.806;2022-09-09T10:38:17;95385.16;;;27.42;56.44
20003;BME280;10162;41.600;23.806;2022-09-09T10:41:00;95365.59;;;28.42;52.90
20003;BME280;10162;41.600;23.806;2022-09-09T10:47:26;95388.34;;;27.76;55.62
20003;BME280;10162;41.600;23.806;2022-09-09T10:50:18;95380.72;;;28.11;54.95
20003;BME280;10162;41.600;23.806;2022-09-09T10:53:02;95383.94;;;28.13;54.02
20003;BME280;10162;41.600;23.806;2022-09-09T10:58:31;95370.09;;;28.19;55.16
20003;BME280;10162;41.600;23.806;2022-09-09T11:01:08;95369.50;;;28.36;53.66
20003;BME280;10162;41.600;23.806;2022-09-09T11:04:13;95368.00;;;28.16;54.28
20003;BME280;10162;41.600;23.806;2022-09-09T11:06:39;95369.41;;;28.27;54.74
20003;BME280;10162;41.600;23.806;2022-09-09T11:09:15;95356.94;;;27.90;54.62
20003;BME280;10162;41.600;23.806;2022-09-09T11:11:51;95349.44;;;28.56;51.23
20003;BME280;10162;41.600;23.806;2022-09-09T11:18:10;95345.69;;;29.37;49.51
20003;BME280;10162;41.600;23.806;2022-09-09T11:20:38;95322.75;;;28.46;52.91
20003;BME280;10162;41.600;23.806;2022-09-09T11:23:12;95327.78;;;28.74;54.15
20003;BME280;10162;41.600;23.806;2022-09-09T11:42:25;95329.88;;;29.75;50.72
20003;BME280;10162;41.600;23.806;2022-09-09T11:48:56;95315.06;;;29.64;49.75
20003;BME280;10162;41.600;23.806;2022-09-09T11:51:31;95314.19;;;29.77;50.76
20003;BME280;10162;41.600;23.806;2022-09-09T11:58:22;95310.31;;;30.57;47.89
20003;BME280;10162;41.600;23.806;2022-09-09T12:00:48;95304.47;;;29.98;47.44
20003;BME280;10162;41.600;23.806;2022-09-09T12:09:59;95298.50;;;30.36;48.48
20003;BME280;10162;41.600;23.806;2022-09-09T12:37:41;95282.53;;;28.99;52.93
20003;BME280;10162;41.600;23.806;2022-09-09T12:42:46;95260.22;;;28.98;53.14
20003;BME280;10162;41.600;23.806;2022-09-09T12:49:04;95248.41;;;29.78;51.36
20003;BME280;10162;41.600;23.806;2022-09-09T12:51:33;95257.75;;;30.98;47.84
20003;BME280;10162;41.600;23.806;2022-09-09T12:57:53;95241.09;;;30.70;47.65
20003;BME280;10162;41.600;23.806;2022-09-09T13:00:24;95245.34;;;31.05;47.81
20003;BME280;10162;41.600;23.806;2022-09-09T13:02:53;95246.28;;;30.06;49.86
20003;BME280;10162;41.600;23.806;2022-09-09T13:09:10;95227.84;;;29.43;51.68
20003;BME280;10162;41.600;23.806;2022-09-09T13:11:41;95216.19;;;29.73;51.23
20003;BME280;10162;41.600;23.806;2022-09-09T13:18:18;95208.88;;;29.65;50.99
20003;BME280;10162;41.600;23.806;2022-09-09T13:20:48;95210.59;;;30.01;50.26
20003;BME280;10162;41.600;23.806;2022-09-09T13:23:15;95217.06;;;30.94;46.97
20003;BME280;10162;41.600;23.806;2022-09-09T13:29:28;95217.22;;;30.98;46.72
20003;BME280;10162;41.600;23.806;2022-09-09T13:32:12;95217.06;;;31.03;46.33
20003;BME280;10162;41.600;23.806;2022-09-09T13:38:29;95211.41;;;30.18;47.82
20003;BME280;10162;41.600;23.806;2022-09-09T13:41:07;95195.84;;;30.41;47.78
20003;BME280;10162;41.600;23.806;2022-09-09T13:47:36;95209.63;;;30.31;47.85
20003;BME280;10162;41.600;23.806;2022-09-09T13:52:59;95206.41;;;29.07;51.34
20003;BME280;10162;41.600;23.806;2022-09-09T13:59:14;95210.09;;;28.66;52.05
20003;BME280;10162;41.600;23.806;2022-09-09T14:01:41;95190.03;;;28.28;53.91
20003;BME280;10162;41.600;23.806;2022-09-09T14:07:54;95200.81;;;28.14;55.35
20003;BME280;10162;41.600;23.806;2022-09-09T14:10:20;95181.34;;;28.31;54.97
20003;BME280;10162;41.600;23.806;2022-09-09T14:12:46;95186.66;;;28.67;53.97
20003;BME280;10162;41.600;23.806;2022-09-09T14:18:59;95211.78;;;28.76;53.55
20003;BME280;10162;41.600;23.806;2022-09-09T14:21:27;95195.78;;;28.57;54.11
20003;BME280;10162;41.600;23.806;2022-09-09T14:27:41;95191.13;;;28.27;55.58
20003;BME280;10162;41.600;23.806;2022-09-09T14:30:08;95197.38;;;27.86;56.31
20003;BME280;10162;41.600;23.806;2022-09-09T14:32:34;95194.22;;;27.71;56.52
20003;BME280;10162;41.600;23.806;2022-09-09T14:38:48;95202.91;;;28.04;55.21
20003;BME280;10162;41.600;23.806;2022-09-09T14:41:17;95199.72;;;27.52;56.31
20003;BME280;10162;41.600;23.806;2022-09-09T14:47:30;95186.50;;;27.56;56.46
20003;BME280;10162;41.600;23.806;2022-09-09T14:49:56;95181.19;;;27.37;57.02
20003;BME280;10162;41.600;23.806;2022-09-09T14:52:22;95191.75;;;27.33;57.87
20003;BME280;10162;41.600;23.806;2022-09-09T14:58:35;95179.88;;;27.34;58.08
20003;BME280;10162;41.600;23.806;2022-09-09T15:01:05;95190.28;;;27.54;57.47
20003;BME280;10162;41.600;23.806;2022-09-09T15:03:33;95184.06;;;27.40;59.21
20003;BME280;10162;41.600;23.806;2022-09-09T15:06:05;95183.78;;;27.69;58.00
20003;BME280;10162;41.600;23.806;2022-09-09T15:08:31;95177.13;;;28.61;54.36
20003;BME280;10162;41.600;23.806;2022-09-09T15:11:01;95197.09;;;29.44;51.95
20003;BME280;10162;41.600;23.806;2022-09-09T15:13:27;95202.16;;;29.14;52.77
20003;BME280;10162;41.600;23.806;2022-09-09T15:19:40;95182.59;;;28.47;53.96
20003;BME280;10162;41.600;23.806;2022-09-09T15:22:08;95187.97;;;28.92;53.18
20003;BME280;10162;41.600;23.806;2022-09-09T15:28:21;95171.47;;;28.18;55.03
20003;BME280;10162;41.600;23.806;2022-09-09T15:30:50;95192.22;;;27.49;56.91
20003;BME280;10162;41.600;23.806;2022-09-09T15:33:18;95183.38;;;27.21;58.04
20003;BME280;10162;41.600;23.806;2022-09-09T15:39:31;95184.38;;;26.65;60.79
20003;BME280;10162;41.600;23.806;2022-09-09T15:41:57;95189.69;;;26.33;61.75
20003;BME280;10162;41.600;23.806;2022-09-09T15:44:22;95200.44;;;26.33;62.50
20003;BME280;10162;41.600;23.806;2022-09-09T15:46:52;95183.84;;;26.31;61.55
20003;BME280;10162;41.600;23.806;2022-09-09T15:49:23;95171.81;;;26.28;62.26
20003;BME280;10162;41.600;23.806;2022-09-09T15:51:53;95185.06;;;26.20;63.46
20003;BME280;10162;41.600;23.806;2022-09-09T15:54:33;95162.03;;;26.00;64.03
20003;BME280;10162;41.600;23.806;2022-09-09T15:57:02;95178.31;;;26.22;64.08
20003;BME280;10162;41.600;23.806;2022-09-09T15:59:29;95184.28;;;26.19;64.91
20003;BME280;10162;41.600;23.806;2022-09-09T16:01:56;95169.34;;;25.95;64.83
20003;BME280;10162;41.600;23.806;2022-09-09T16:04:27;95182.75;;;25.95;65.80
20003;BME280;10162;41.600;23.806;2022-09-09T16:07:00;95172.03;;;25.76;65.51
20003;BME280;10162;41.600;23.806;2022-09-09T16:09:27;95178.25;;;25.71;66.59
20003;BME280;10162;41.600;23.806;2022-09-09T16:11:55;95156.50;;;25.54;66.97
20003;BME280;10162;41.600;23.806;2022-09-09T16:18:08;95170.75;;;25.26;70.44
20003;BME280;10162;41.600;23.806;2022-09-09T16:20:33;95163.94;;;25.15;72.01
20003;BME280;10162;41.600;23.806;2022-09-09T16:22:59;95181.69;;;25.05;72.99
20003;BME280;10162;41.600;23.806;2022-09-09T16:29:15;95177.47;;;24.70;75.02
20003;BME280;10162;41.600;23.806;2022-09-09T16:31:42;95168.97;;;24.63;74.64
20003;BME280;10162;41.600;23.806;2022-09-09T16:37:55;95177.31;;;24.57;75.28
20003;BME280;10162;41.600;23.806;2022-09-09T16:40:22;95170.72;;;24.44;76.12
20003;BME280;10162;41.600;23.806;2022-09-09T16:42:48;95181.81;;;24.27;76.75
20003;BME280;10162;41.600;23.806;2022-09-09T16:45:14;95180.34;;;24.06;78.06
20003;BME280;10162;41.600;23.806;2022-09-09T16:47:39;95185.34;;;24.23;76.90
20003;BME280;10162;41.600;23.806;2022-09-09T16:50:05;95175.78;;;24.12;75.59
20003;BME280;10162;41.600;23.806;2022-09-09T16:52:31;95163.28;;;24.02;77.46
20003;BME280;10162;41.600;23.806;2022-09-09T16:54:57;95160.13;;;23.95;77.95
20003;BME280;10162;41.600;23.806;2022-09-09T16:57:23;95199.13;;;23.96;78.64
20003;BME280;10162;41.600;23.806;2022-09-09T16:59:49;95183.94;;;23.92;78.17
20003;BME280;10162;41.600;23.806;2022-09-09T17:02:15;95182.88;;;23.87;78.45
20003;BME280;10162;41.600;23.806;2022-09-09T17:04:41;95183.72;;;23.78;79.12
20003;BME280;10162;41.600;23.806;2022-09-09T17:07:07;95188.00;;;23.79;78.91
20003;BME280;10162;41.600;23.806;2022-09-09T17:09:33;95192.81;;;23.77;79.21
20003;BME280;10162;41.600;23.806;2022-09-09T17:11:59;95202.38;;;23.83;79.56
20003;BME280;10162;41.600;23.806;2022-09-09T17:14:25;95196.84;;;23.74;78.40
20003;BME280;10162;41.600;23.806;2022-09-09T17:16:51;95212.84;;;23.79;79.21
20003;BME280;10162;41.600;23.806;2022-09-09T17:19:17;95212.88;;;23.74;79.63
20003;BME280;10162;41.600;23.806;2022-09-09T17:21:43;95211.75;;;23.75;79.21
20003;BME280;10162;41.600;23.806;2022-09-09T17:24:10;95215.00;;;23.72;79.49
20003;BME280;10162;41.600;23.806;2022-09-09T17:26:36;95208.88;;;23.67;80.35
20003;BME280;10162;41.600;23.806;2022-09-09T17:29:03;95212.13;;;23.54;81.23
20003;BME280;10162;41.600;23.806;2022-09-09T17:31:30;95223.63;;;23.54;81.34
20003;BME280;10162;41.600;23.806;2022-09-09T17:33:58;95212.72;;;23.30;82.36
20003;BME280;10162;41.600;23.806;2022-09-09T17:36:27;95221.53;;;23.46;81.04
20003;BME280;10162;41.600;23.806;2022-09-09T17:38:54;95224.66;;;23.63;79.71
20003;BME280;10162;41.600;23.806;2022-09-09T17:41:22;95222.84;;;23.48;80.41
20003;BME280;10162;41.600;23.806;2022-09-09T17:43:49;95220.16;;;23.54;79.86
20003;BME280;10162;41.600;23.806;2022-09-09T17:46:21;95233.25;;;23.50;80.77
20003;BME280;10162;41.600;23.806;2022-09-09T17:48:49;95217.25;;;23.40;80.29
20003;BME280;10162;41.600;23.806;2022-09-09T17:51:18;95243.63;;;23.57;80.85
20003;BME280;10162;41.600;23.806;2022-09-09T17:53:57;95230.59;;;23.40;81.91
20003;BME280;10162;41.600;23.806;2022-09-09T17:56:25;95248.25;;;23.21;83.33
20003;BME280;10162;41.600;23.806;2022-09-09T17:58:52;95244.75;;;23.30;83.29
20003;BME280;10162;41.600;23.806;2022-09-09T18:01:21;95255.47;;;23.05;85.66
20003;BME280;10162;41.600;23.806;2022-09-09T18:03:54;95253.59;;;23.16;84.49
20003;BME280;10162;41.600;23.806;2022-09-09T18:06:26;95262.13;;;23.13;85.31
20003;BME280;10162;41.600;23.806;2022-09-09T18:08:54;95255.22;;;23.06;84.98
20003;BME280;10162;41.600;23.806;2022-09-09T18:11:23;95257.88;;;23.06;85.32
20003;BME280;10162;41.600;23.806;2022-09-09T18:17:07;95270.41;;;22.96;85.04
20003;BME280;10162;41.600;23.806;2022-09-09T18:19:33;95274.38;;;23.14;84.95
20003;BME280;10162;41.600;23.806;2022-09-09T18:22:02;95263.19;;;23.01;83.98
20003;BME280;10162;41.600;23.806;2022-09-09T18:24:48;95271.22;;;22.86;86.41
20003;BME280;10162;41.600;23.806;2022-09-09T18:27:14;95264.28;;;22.65;88.25
20003;BME280;10162;41.600;23.806;2022-09-09T18:29:40;95271.47;;;22.54;89.30
20003;BME280;10162;41.600;23.806;2022-09-09T18:32:06;95264.03;;;22.66;87.55
20003;BME280;10162;41.600;23.806;2022-09-09T18:34:45;95284.81;;;22.75;88.22
20003;BME280;10162;41.600;23.806;2022-09-09T18:37:11;95279.47;;;22.54;90.38